createdAt,value
2023-03-21T00:04:48.464Z,95967.47
2023-03-21T00:09:59.129Z,95966.69
2023-03-21T00:15:16.242Z,95960.03
2023-03-21T00:20:23.621Z,95951.84
2023-03-21T00:25:30.077Z,95957.69
2023-03-21T00:30:31.732Z,95947.94
2023-03-21T00:35:57.952Z,95953.78
2023-03-21T00:41:04.729Z,95945.97
2023-03-21T00:46:13.746Z,95944.41
2023-03-21T00:51:27.170Z,95943.63
2023-03-21T00:56:31.567Z,95931.91
2023-03-21T01:01:33.206Z,95931.53
2023-03-21T01:06:40.193Z,95926.47
2023-03-21T01:11:42.278Z,95928.38
2023-03-21T01:16:46.219Z,95924.09
2023-03-21T01:21:50.316Z,95920.59
2023-03-21T01:26:54.454Z,95918.66
2023-03-21T01:31:56.159Z,95924.88
2023-03-21T01:37:00.810Z,95923.69
2023-03-21T01:42:07.338Z,95916.69
2023-03-21T01:47:12.495Z,95916.28
2023-03-21T01:52:37.992Z,95916.69
2023-03-21T01:58:02.468Z,95921.75
2023-03-21T02:03:17.020Z,95916.28
2023-03-21T02:08:39.190Z,95908.47
2023-03-21T02:13:45.798Z,95906.13
2023-03-21T02:18:55.470Z,95901.03
2023-03-21T02:24:21.497Z,95898.72
2023-03-21T02:29:23.271Z,95898.31
2023-03-21T02:35:00.751Z,95896.38
2023-03-21T02:40:14.332Z,95891.69
2023-03-21T02:45:20.435Z,95890.88
2023-03-21T02:50:43.702Z,95881.84
2023-03-21T02:55:47.408Z,95885.00
2023-03-21T03:00:55.185Z,95898.63
2023-03-21T03:06:45.055Z,95893.16
2023-03-21T03:11:57.565Z,95896.66
2023-03-21T03:17:05.385Z,95895.88
2023-03-21T03:22:16.264Z,95891.59
2023-03-21T03:27:20.073Z,95895.47
2023-03-21T03:32:31.351Z,95893.91
2023-03-21T03:37:37.386Z,95894.69
2023-03-21T03:42:52.493Z,95888.84
2023-03-21T03:48:22.248Z,95886.88
2023-03-21T03:53:36.466Z,95890.41
2023-03-21T03:58:45.589Z,95883.78
2023-03-21T04:04:01.033Z,95876.34
2023-03-21T04:09:20.679Z,95874.41
2023-03-21T04:14:42.051Z,95876.75
2023-03-21T04:19:53.814Z,95875.97
2023-03-21T04:25:01.469Z,95876.34
2023-03-21T04:30:06.009Z,95872.84
2023-03-21T04:35:28.504Z,95872.06
2023-03-21T04:40:32.914Z,95871.31
2023-03-21T04:45:38.497Z,95871.69
2023-03-21T04:50:42.607Z,95880.66
2023-03-21T04:55:45.131Z,95876.38
2023-03-21T05:00:49.459Z,95875.97
2023-03-21T05:05:51.115Z,95868.16
2023-03-21T05:10:56.762Z,95872.84
2023-03-21T05:16:01.287Z,95875.97
2023-03-21T05:21:11.013Z,95880.66
2023-03-21T05:26:14.691Z,95873.22
2023-03-21T05:31:30.152Z,95882.56
2023-03-21T05:36:41.050Z,95877.13
2023-03-21T05:41:45.247Z,95885.31
2023-03-21T05:46:52.777Z,95888.06
2023-03-21T05:51:58.883Z,95887.66
2023-03-21T05:57:05.674Z,95891.16
2023-03-21T06:02:24.235Z,95891.97
2023-03-21T06:07:29.508Z,95886.50
2023-03-21T06:12:31.386Z,95892.78
2023-03-21T06:17:56.078Z,95894.31
2023-03-21T06:23:06.051Z,95899.81
2023-03-21T06:28:10.596Z,95900.19
2023-03-21T06:33:19.836Z,95902.19
2023-03-21T06:38:24.468Z,95901.81
2023-03-21T06:43:26.310Z,95906.88
2023-03-21T06:48:30.474Z,95911.97
2023-03-21T06:53:35.070Z,95910.81
2023-03-21T06:59:00.724Z,95911.22
2023-03-21T07:04:24.349Z,95922.16
2023-03-21T07:09:28.696Z,95918.25
2023-03-21T07:14:38.895Z,95919.81
2023-03-21T07:19:44.831Z,95925.31
2023-03-21T07:25:02.436Z,95919.81
2023-03-21T07:30:11.337Z,95919.44
2023-03-21T07:35:16.088Z,95909.28
2023-03-21T07:40:20.245Z,95912.41
2023-03-21T07:45:26.952Z,95914.75
2023-03-21T07:50:28.455Z,95905.34
2023-03-21T07:55:29.998Z,95908.47
2023-03-21T08:00:31.775Z,95907.69
2023-03-21T08:05:39.524Z,95900.66
2023-03-21T08:10:45.294Z,95914.69
2023-03-21T08:15:46.930Z,95919.00
2023-03-21T08:20:55.998Z,95913.13
2023-03-21T08:25:59.839Z,95908.47
2023-03-21T08:31:11.320Z,95903.34
2023-03-21T08:36:13.040Z,95897.88
2023-03-21T08:41:19.518Z,95902.13
2023-03-21T08:46:21.059Z,95906.84
2023-03-21T08:51:22.697Z,95901.38
2023-03-21T08:56:26.481Z,95895.44
2023-03-21T09:01:29.508Z,95897.41
2023-03-21T09:06:33.425Z,95899.69
2023-03-21T09:11:37.649Z,95889.47
2023-03-21T09:16:39.180Z,95889.06
2023-03-21T09:21:44.066Z,95889.75
2023-03-21T09:26:45.801Z,95879.13
2023-03-21T09:31:53.530Z,95882.22
2023-03-21T09:36:57.977Z,95875.84
2023-03-21T09:42:24.799Z,95880.47
2023-03-21T09:47:34.723Z,95872.91
2023-03-21T09:53:05.844Z,95879.88
2023-03-21T09:58:29.077Z,95892.41
2023-03-21T10:03:36.869Z,95868.81
2023-03-21T10:08:41.916Z,95867.13
2023-03-21T10:14:07.769Z,95851.31
2023-03-21T10:19:14.801Z,95864.69
2023-03-21T10:24:26.214Z,95852.13
2023-03-21T10:29:32.851Z,95843.38
2023-03-21T10:34:50.696Z,95844.53
2023-03-21T10:39:54.947Z,95842.94
2023-03-21T10:44:57.743Z,95837.44
2023-03-21T10:50:11.857Z,95838.09
2023-03-21T10:55:32.079Z,95829.31
2023-03-21T11:00:53.609Z,95834.00
2023-03-21T11:05:59.767Z,95822.09
2023-03-21T11:11:12.469Z,95828.13
2023-03-21T11:16:27.299Z,95816.19
2023-03-21T11:21:36.189Z,95804.22
2023-03-21T11:26:44.387Z,95795.41
2023-03-21T11:31:48.372Z,95784.09
2023-03-21T11:36:51.009Z,95790.56
2023-03-21T11:41:52.807Z,95777.69
2023-03-21T11:46:54.940Z,95765.22
2023-03-21T11:52:05.921Z,95766.50
2023-03-21T11:57:31.576Z,95765.56
2023-03-21T12:02:55.755Z,95748.19
2023-03-21T12:08:30.891Z,95737.56
2023-03-21T12:13:54.587Z,95731.50
2023-03-21T12:19:10.650Z,95725.59
2023-03-21T12:24:42.365Z,95707.44
2023-03-21T12:30:07.167Z,95697.03
2023-03-21T12:35:22.787Z,95701.44
2023-03-21T12:41:09.482Z,95715.69
2023-03-21T12:46:28.173Z,95700.16
2023-03-21T12:51:34.759Z,95700.91
2023-03-21T12:56:52.882Z,95694.91
2023-03-21T13:01:59.651Z,95685.06
2023-03-21T13:07:06.689Z,95683.00
2023-03-21T13:12:34.581Z,95677.41
2023-03-21T13:17:48.583Z,95676.22
2023-03-21T13:22:50.225Z,95669.81
2023-03-21T13:27:54.153Z,95666.44
2023-03-21T13:33:12.989Z,95659.78
2023-03-21T13:38:19.652Z,95651.97
2023-03-21T13:44:05.843Z,95639.06
2023-03-21T13:49:10.655Z,95627.59
2023-03-21T13:54:17.335Z,95633.00
2023-03-21T13:59:37.362Z,95629.47
2023-03-21T14:05:00.325Z,95620.50
2023-03-21T14:10:22.216Z,95625.94
2023-03-21T14:15:30.437Z,95624.97
2023-03-21T14:20:42.266Z,95624.97
2023-03-21T14:25:47.729Z,95620.47
2023-03-21T14:30:55.685Z,95613.72
2023-03-21T14:36:05.144Z,95604.56
2023-03-21T14:41:22.104Z,95606.34
2023-03-21T14:46:27.239Z,95604.28
2023-03-21T14:51:29.132Z,95602.63
2023-03-21T14:56:30.724Z,95592.16
2023-03-21T15:01:36.200Z,95594.78
2023-03-21T15:06:51.901Z,95587.94
2023-03-21T15:11:55.960Z,95584.41
2023-03-21T15:17:00.791Z,95582.69
2023-03-21T15:22:09.693Z,95583.78
2023-03-21T15:27:18.968Z,95587.22
2023-03-21T15:32:29.153Z,95570.53
2023-03-21T15:37:36.866Z,95570.53
2023-03-21T15:42:47.704Z,95571.00
2023-03-21T15:47:49.231Z,95570.66
2023-03-21T15:52:52.216Z,95570.19
2023-03-21T15:58:02.609Z,95569.94
2023-03-21T16:03:16.991Z,95570.47
2023-03-21T16:08:27.277Z,95568.19
2023-03-21T16:13:29.224Z,95578.13
2023-03-21T16:18:33.216Z,95574.75
2023-03-21T16:23:39.350Z,95577.31
2023-03-21T16:28:40.909Z,95573.44
2023-03-21T16:33:43.590Z,95571.56
2023-03-21T16:38:55.088Z,95578.72
2023-03-21T16:43:56.665Z,95585.22
2023-03-21T16:48:58.485Z,95585.88
2023-03-21T16:54:00.666Z,95587.63
2023-03-21T16:59:05.953Z,95592.88
2023-03-21T17:04:12.438Z,95591.41
2023-03-21T17:09:19.088Z,95591.19
2023-03-21T17:14:22.729Z,95593.28
2023-03-21T17:19:26.285Z,95596.22
2023-03-21T17:24:28.341Z,95599.94
2023-03-21T17:29:30.342Z,95601.31
2023-03-21T17:34:34.200Z,95609.34
2023-03-21T17:39:38.864Z,95599.25
2023-03-21T17:44:42.835Z,95602.94
2023-03-21T17:49:44.574Z,95605.03
2023-03-21T17:54:53.871Z,95617.00
2023-03-21T17:59:56.813Z,95618.75
2023-03-21T18:05:00.802Z,95617.69
2023-03-21T18:10:03.726Z,95617.00
2023-03-21T18:15:16.852Z,95619.06
2023-03-21T18:20:22.559Z,95614.44
2023-03-21T18:25:29.117Z,95619.31
2023-03-21T18:30:53.043Z,95620.59
2023-03-21T18:35:58.641Z,95624.66
2023-03-21T18:41:01.135Z,95623.97
2023-03-21T18:46:07.261Z,95625.59
2023-03-21T18:51:10.035Z,95626.09
2023-03-21T18:56:46.646Z,95624.63
2023-03-21T19:01:35.364Z,95627.13
2023-03-21T19:06:38.743Z,95620.53
2023-03-21T19:11:44.117Z,95638.31
2023-03-21T19:17:34.238Z,95632.53
2023-03-21T19:22:12.820Z,95640.53
2023-03-21T19:27:14.783Z,95640.25
2023-03-21T19:32:20.265Z,95639.13
2023-03-21T19:37:22.121Z,95645.91
2023-03-21T19:42:28.391Z,95636.91
2023-03-21T19:47:33.801Z,95630.72
2023-03-21T19:52:37.490Z,95611.13
2023-03-21T19:57:39.080Z,95619.00
2023-03-21T20:02:40.979Z,95623.47
2023-03-21T20:07:42.576Z,95619.66
2023-03-21T20:12:48.335Z,95622.88
2023-03-21T20:17:50.416Z,95622.59
2023-03-21T20:23:06.825Z,95627.38
2023-03-21T20:28:16.238Z,95638.09
2023-03-21T20:33:21.890Z,95630.34
2023-03-21T20:38:26.184Z,95637.53
2023-03-21T20:48:53.493Z,95632.22
2023-03-21T20:53:55.329Z,95628.31
2023-03-21T20:59:17.434Z,95632.69
2023-03-21T21:05:08.043Z,95635.19
2023-03-21T21:09:59.036Z,95633.25
2023-03-21T21:15:00.900Z,95633.34
2023-03-21T21:20:20.761Z,95641.97
2023-03-21T21:25:24.017Z,95634.59
2023-03-21T21:30:38.179Z,95638.53
2023-03-21T21:35:47.370Z,95631.47
2023-03-21T21:40:51.991Z,95625.19
2023-03-21T21:45:54.210Z,95628.38
2023-03-21T21:50:59.033Z,95621.31
2023-03-21T21:56:03.411Z,95626.13
2023-03-21T22:01:07.770Z,95616.75
2023-03-21T22:06:12.353Z,95621.09
2023-03-21T22:11:14.925Z,95618.00
2023-03-21T22:16:21.159Z,95615.72
2023-03-21T22:21:22.791Z,95607.59
2023-03-21T22:26:24.418Z,95609.22
2023-03-21T22:31:26.426Z,95610.84
2023-03-21T22:36:29.973Z,95614.44
2023-03-21T22:41:33.943Z,95616.41
2023-03-21T22:46:38.722Z,95615.63
2023-03-21T22:51:41.915Z,95617.25
2023-03-21T22:56:43.730Z,95635.03
2023-03-21T23:01:45.359Z,95625.69
2023-03-21T23:06:47.181Z,95619.50
2023-03-21T23:11:51.561Z,95616.09
2023-03-21T23:16:53.696Z,95604.81
2023-03-21T23:21:55.847Z,95606.03
2023-03-21T23:26:57.508Z,95615.56
2023-03-21T23:32:01.263Z,95621.09
2023-03-21T23:37:06.838Z,95613.66
2023-03-21T23:42:13.228Z,95627.38
2023-03-21T23:47:16.047Z,95621.88
2023-03-21T23:52:17.651Z,95627.38
2023-03-21T23:57:25.264Z,95618.78
